sensor_id;sensor_type;location;lat;lon;timestamp;pressure;altitude;pressure_sealevel;temperature;humidity
4123;BME280;2075;51.062;6.920;2023-04-25T00:01:45;74725.66;;;-144.48;100.00
4123;BME280;2075;51.062;6.920;2023-04-25T00:04:30;79617.97;;;-144.48;100.00
4123;BME280;2075;51.062;6.920;2023-04-25T00:07:17;81311.69;;;-144.48;100.00
4123;BME280;2075;51.062;6.920;2023-04-25T00:10:03;79593.69;;;-144.48;100.00
4123;BME280;2075;51.062;6.920;2023-04-25T00:12:49;78149.56;;;-144.48;100.00
4123;BME280;2075;51.062;6.920;2023-04-25T00:15:35;81064.78;;;-144.48;100.00
4123;BME280;2075;51.062;6.920;2023-04-25T00:18:22;80229.00;;;-144.48;100.00
4123;BME280;2075;51.062;6.920;2023-04-25T00:21:08;78525.69;;;-144.48;100.00
4123;BME280;2075;51.062;6.920;2023-04-25T00:23:54;77906.91;;;-144.48;100.00
4123;BME280;2075;51.062;6.920;2023-04-25T00:26:40;76334.09;;;-144.48;100.00
4123;BME280;2075;51.062;6.920;2023-04-25T00:29:26;76330.06;;;-144.48;100.00
4123;BME280;2075;51.062;6.920;2023-04-25T00:32:12;75121.63;;;-144.48;100.00
4123;BME280;2075;51.062;6.920;2023-04-25T00:34:57;74919.59;;;-144.48;100.00
4123;BME280;2075;51.062;6.920;2023-04-25T00:37:43;74089.38;;;-144.48;100.00
4123;BME280;2075;51.062;6.920;2023-04-25T00:40:28;71926.84;;;-144.48;100.00
4123;BME280;2075;51.062;6.920;2023-04-25T00:43:14;73283.56;;;-144.48;100.00
4123;BME280;2075;51.062;6.920;2023-04-25T00:46:00;81020.25;;;-144.48;100.00
4123;BME280;2075;51.062;6.920;2023-04-25T00:48:46;85248.72;;;-144.48;100.00
4123;BME280;2075;51.062;6.920;2023-04-25T00:51:32;86817.47;;;-144.48;100.00
4123;BME280;2075;51.062;6.920;2023-04-25T00:54:18;86223.53;;;-144.48;100.00
4123;BME280;2075;51.062;6.920;2023-04-25T00:57:03;86570.16;;;-144.48;100.00
4123;BME280;2075;51.062;6.920;2023-04-25T00:59:51;87052.66;;;-144.48;100.00
4123;BME280;2075;51.062;6.920;2023-04-25T01:02:37;87164.16;;;-144.48;100.00
4123;BME280;2075;51.062;6.920;2023-04-25T01:05:24;87551.44;;;-144.48;100.00
4123;BME280;2075;51.062;6.920;2023-04-25T01:08:10;88086.78;;;-144.48;100.00
4123;BME280;2075;51.062;6.920;2023-04-25T01:10:55;88289.59;;;-144.48;100.00
4123;BME280;2075;51.062;6.920;2023-04-25T01:13:41;89389.03;;;-144.48;100.00
4123;BME280;2075;51.062;6.920;2023-04-25T01:16:26;90001.78;;;-144.48;100.00
4123;BME280;2075;51.062;6.920;2023-04-25T01:19:16;90156.00;;;-144.48;100.00
4123;BME280;2075;51.062;6.920;2023-04-25T01:22:05;90281.81;;;-144.48;100.00
4123;BME280;2075;51.062;6.920;2023-04-25T01:24:50;90868.34;;;-144.48;100.00
4123;BME280;2075;51.062;6.920;2023-04-25T01:27:36;90647.13;;;-144.48;100.00
4123;BME280;2075;51.062;6.920;2023-04-25T01:30:22;90450.25;;;-144.48;100.00
4123;BME280;2075;51.062;6.920;2023-04-25T01:33:07;90373.13;;;-144.48;100.00
4123;BME280;2075;51.062;6.920;2023-04-25T01:35:53;90306.16;;;-144.48;100.00
4123;BME280;2075;51.062;6.920;2023-04-25T01:38:40;89784.66;;;-144.48;100.00
4123;BME280;2075;51.062;6.920;2023-04-25T01:41:25;89733.94;;;-144.48;100.00
4123;BME280;2075;51.062;6.920;2023-04-25T01:44:11;89462.06;;;-144.48;100.00
4123;BME280;2075;51.062;6.920;2023-04-25T01:46:57;87853.56;;;-144.48;100.00
4123;BME280;2075;51.062;6.920;2023-04-25T01:49:44;88626.28;;;-144.48;100.00
4123;BME280;2075;51.062;6.920;2023-04-25T01:52:29;89476.28;;;-144.48;100.00
4123;BME280;2075;51.062;6.920;2023-04-25T01:55:16;91111.91;;;-144.48;100.00
4123;BME280;2075;51.062;6.920;2023-04-25T01:58:11;91097.69;;;-144.48;100.00
4123;BME280;2075;51.062;6.920;2023-04-25T02:01:17;89194.28;;;-144.48;100.00
4123;BME280;2075;51.062;6.920;2023-04-25T02:04:11;87632.53;;;-144.48;100.00
4123;BME280;2075;51.062;6.920;2023-04-25T02:06:58;86489.06;;;-144.48;100.00
4123;BME280;2075;51.062;6.920;2023-04-25T02:09:51;83954.09;;;-144.48;100.00
4123;BME280;2075;51.062;6.920;2023-04-25T02:12:39;80305.88;;;-144.48;100.00
4123;BME280;2075;51.062;6.920;2023-04-25T02:15:42;79696.88;;;-144.48;100.00
4123;BME280;2075;51.062;6.920;2023-04-25T02:18:32;83083.19;;;-144.48;100.00
4123;BME280;2075;51.062;6.920;2023-04-25T02:21:18;86480.97;;;-144.48;100.00
4123;BME280;2075;51.062;6.920;2023-04-25T02:24:04;86630.97;;;-144.48;100.00
4123;BME280;2075;51.062;6.920;2023-04-25T02:26:51;86675.56;;;-144.48;100.00
4123;BME280;2075;51.062;6.920;2023-04-25T02:29:37;86770.84;;;-144.48;100.00
4123;BME280;2075;51.062;6.920;2023-04-25T02:32:23;87636.59;;;-144.48;100.00
4123;BME280;2075;51.062;6.920;2023-04-25T02:35:08;88512.69;;;-144.48;100.00
4123;BME280;2075;51.062;6.920;2023-04-25T02:37:54;88920.41;;;-144.48;100.00
4123;BME280;2075;51.062;6.920;2023-04-25T02:40:39;89173.97;;;-144.48;100.00
4123;BME280;2075;51.062;6.920;2023-04-25T02:43:24;89015.75;;;-144.48;100.00
4123;BME280;2075;51.062;6.920;2023-04-25T02:46:11;87640.66;;;-144.48;100.00
4123;BME280;2075;51.062;6.920;2023-04-25T02:48:57;88417.38;;;-144.48;100.00
4123;BME280;2075;51.062;6.920;2023-04-25T02:51:42;88269.31;;;-144.48;100.00
4123;BME280;2075;51.062;6.920;2023-04-25T02:54:28;88021.88;;;-144.48;100.00
4123;BME280;2075;51.062;6.920;2023-04-25T02:57:15;88145.59;;;-144.48;100.00
4123;BME280;2075;51.062;6.920;2023-04-25T03:00:00;87881.97;;;-144.48;100.00
4123;BME280;2075;51.062;6.920;2023-04-25T03:02:47;88301.75;;;-144.48;100.00
4123;BME280;2075;51.062;6.920;2023-04-25T03:05:32;88794.63;;;-144.48;100.00
4123;BME280;2075;51.062;6.920;2023-04-25T03:08:18;86878.28;;;-144.48;100.00
4123;BME280;2075;51.062;6.920;2023-04-25T03:11:03;88297.72;;;-144.48;100.00
4123;BME280;2075;51.062;6.920;2023-04-25T03:13:49;88232.81;;;-144.48;100.00
4123;BME280;2075;51.062;6.920;2023-04-25T03:16:34;88595.84;;;-144.48;100.00
4123;BME280;2075;51.062;6.920;2023-04-25T03:19:21;85929.63;;;-144.48;100.00
4123;BME280;2075;51.062;6.920;2023-04-25T03:22:06;85297.34;;;-144.48;100.00
4123;BME280;2075;51.062;6.920;2023-04-25T03:24:52;86099.88;;;-144.48;100.00
4123;BME280;2075;51.062;6.920;2023-04-25T03:27:38;87502.75;;;-144.48;100.00
4123;BME280;2075;51.062;6.920;2023-04-25T03:30:24;87717.69;;;-144.48;100.00
4123;BME280;2075;51.062;6.920;2023-04-25T03:33:09;87514.94;;;-144.48;100.00
4123;BME280;2075;51.062;6.920;2023-04-25T03:35:56;86091.78;;;-144.48;100.00
4123;BME280;2075;51.062;6.920;2023-04-25T03:38:42;86428.25;;;-144.48;100.00
4123;BME280;2075;51.062;6.920;2023-04-25T03:41:30;85313.53;;;-144.48;100.00
4123;BME280;2075;51.062;6.920;2023-04-25T03:44:20;84642.88;;;-144.48;100.00
4123;BME280;2075;51.062;6.920;2023-04-25T03:47:06;83115.59;;;-144.48;100.00
4123;BME280;2075;51.062;6.920;2023-04-25T03:49:51;81340.03;;;-144.48;100.00
4123;BME280;2075;51.062;6.920;2023-04-25T03:52:40;80866.44;;;-144.48;100.00
4123;BME280;2075;51.062;6.920;2023-04-25T03:55:26;77415.56;;;-144.48;100.00
4123;BME280;2075;51.062;6.920;2023-04-25T03:58:11;75578.28;;;-144.48;100.00
4123;BME280;2075;51.062;6.920;2023-04-25T04:00:57;69451.00;;;-144.48;100.00
4123;BME280;2075;51.062;6.920;2023-04-25T04:03:42;66096.25;;;-144.48;100.00
4123;BME280;2075;51.062;6.920;2023-04-25T04:06:28;62487.13;;;-144.48;100.00
4123;BME280;2075;51.062;6.920;2023-04-25T04:09:27;62487.13;;;-144.48;100.00
4123;BME280;2075;51.062;6.920;2023-04-25T04:12:14;64033.44;;;-144.48;100.00
4123;BME280;2075;51.062;6.920;2023-04-25T04:15:00;62487.13;;;-144.48;100.00
4123;BME280;2075;51.062;6.920;2023-04-25T04:17:48;60941.53;;;-144.48;100.00
4123;BME280;2075;51.062;6.920;2023-04-25T04:20:33;60426.50;;;-144.48;100.00
4123;BME280;2075;51.062;6.920;2023-04-25T04:23:19;60684.00;;;-144.48;100.00
4123;BME280;2075;51.062;6.920;2023-04-25T04:26:06;59396.66;;;-144.48;100.00
4123;BME280;2075;51.062;6.920;2023-04-25T04:29:00;59911.53;;;-144.48;100.00
4123;BME280;2075;51.062;6.920;2023-04-25T04:32:12;60684.00;;;-144.48;100.00
4123;BME280;2075;51.062;6.920;2023-04-25T04:34:58;60169.00;;;-144.48;100.00
4123;BME280;2075;51.062;6.920;2023-04-25T04:37:44;59396.66;;;-144.48;100.00
4123;BME280;2075;51.062;6.920;2023-04-25T04:40:31;58881.84;;;-144.48;100.00
4123;BME280;2075;51.062;6.920;2023-04-25T04:43:44;60941.53;;;-144.48;100.00
4123;BME280;2075;51.062;6.920;2023-04-25T04:47:02;62229.50;;;-144.48;100.00
4123;BME280;2075;51.062;6.920;2023-04-25T04:50:10;63775.66;;;-144.48;100.00
4123;BME280;2075;51.062;6.920;2023-04-25T04:53:14;63517.94;;;-144.48;100.00
4123;BME280;2075;51.062;6.920;2023-04-25T04:56:11;64549.03;;;-144.48;100.00
4123;BME280;2075;51.062;6.920;2023-04-25T04:59:10;66096.25;;;-144.48;100.00
4123;BME280;2075;51.062;6.920;2023-04-25T05:02:06;69192.84;;;-144.48;100.00
4123;BME280;2075;51.062;6.920;2023-04-25T05:05:11;71103.38;;;-144.48;100.00
4123;BME280;2075;51.062;6.920;2023-04-25T05:08:17;69451.00;;;-144.48;100.00
4123;BME280;2075;51.062;6.920;2023-04-25T05:11:26;68676.53;;;-144.48;100.00
4123;BME280;2075;51.062;6.920;2023-04-25T05:14:36;74174.19;;;-144.48;100.00
4123;BME280;2075;51.062;6.920;2023-04-25T05:17:44;81380.50;;;-144.48;100.00
4123;BME280;2075;51.062;6.920;2023-04-25T05:20:50;84089.81;;;-144.48;100.00
4123;BME280;2075;51.062;6.920;2023-04-25T05:24:14;89989.59;;;-144.48;100.00
4123;BME280;2075;51.062;6.920;2023-04-25T05:27:19;93237.78;;;-144.48;100.00
4123;BME280;2075;51.062;6.920;2023-04-25T05:30:29;94009.66;;;-144.48;100.00
4123;BME280;2075;51.062;6.920;2023-04-25T05:33:22;94212.81;;;-144.48;89.24
4123;BME280;2075;51.062;6.920;2023-04-25T05:36:08;93964.97;;;-144.48;63.14
4123;BME280;2075;51.062;6.920;2023-04-25T05:38:53;93810.56;;;-144.48;49.80
4123;BME280;2075;51.062;6.920;2023-04-25T05:41:39;93566.81;;;-144.48;45.08
4123;BME280;2075;51.062;6.920;2023-04-25T05:44:51;93414.47;;;-144.48;41.28
4123;BME280;2075;51.062;6.920;2023-04-25T05:48:01;93507.91;;;-144.48;41.89
4123;BME280;2075;51.062;6.920;2023-04-25T05:51:07;93384.00;;;-144.48;40.22
4123;BME280;2075;51.062;6.920;2023-04-25T05:54:04;93205.28;;;-144.48;38.07
4123;BME280;2075;51.062;6.920;2023-04-25T05:56:51;93211.38;;;-144.48;37.47
4123;BME280;2075;51.062;6.920;2023-04-25T05:59:37;93016.41;;;-144.48;36.64
4123;BME280;2075;51.062;6.920;2023-04-25T06:02:22;93284.50;;;-144.48;36.83
4123;BME280;2075;51.062;6.920;2023-04-25T06:05:10;93231.69;;;-144.48;36.13
4123;BME280;2075;51.062;6.920;2023-04-25T06:07:55;93294.63;;;-144.48;36.43
4123;BME280;2075;51.062;6.920;2023-04-25T06:10:41;93189.03;;;-144.48;36.05
4123;BME280;2075;51.062;6.920;2023-04-25T06:13:26;93134.19;;;-144.48;34.75
4123;BME280;2075;51.062;6.920;2023-04-25T06:16:13;93552.59;;;-144.48;38.63
4123;BME280;2075;51.062;6.920;2023-04-25T06:18:58;93934.50;;;-144.48;43.65
4123;BME280;2075;51.062;6.920;2023-04-25T06:21:45;94082.78;;;-144.48;50.74
4123;BME280;2075;51.062;6.920;2023-04-25T06:24:31;94239.22;;;-144.48;57.23
4123;BME280;2075;51.062;6.920;2023-04-25T06:27:16;94375.34;;;-144.48;65.38
4123;BME280;2075;51.062;6.920;2023-04-25T06:30:02;94375.34;;;-144.48;69.44
4123;BME280;2075;51.062;6.920;2023-04-25T06:32:50;94279.84;;;-144.48;66.78
4123;BME280;2075;51.062;6.920;2023-04-25T06:35:35;94306.28;;;-144.48;66.03
4123;BME280;2075;51.062;6.920;2023-04-25T06:38:23;94283.91;;;-144.48;63.25
4123;BME280;2075;51.062;6.920;2023-04-25T06:41:10;94371.28;;;-144.48;62.90
4123;BME280;2075;51.062;6.920;2023-04-25T06:43:55;94312.38;;;-144.48;63.30
4123;BME280;2075;51.062;6.920;2023-04-25T06:46:51;94279.84;;;-144.48;63.22
4123;BME280;2075;51.062;6.920;2023-04-25T06:49:37;94066.53;;;-144.48;67.76
4123;BME280;2075;51.062;6.920;2023-04-25T06:52:23;94318.47;;;-144.48;65.21
4123;BME280;2075;51.062;6.920;2023-04-25T06:55:11;94281.88;;;-144.48;64.97
4123;BME280;2075;51.062;6.920;2023-04-25T06:58:13;94318.47;;;-144.48;64.04
4123;BME280;2075;51.062;6.920;2023-04-25T07:01:21;94314.41;;;-144.48;65.82
4123;BME280;2075;51.062;6.920;2023-04-25T07:04:07;94292.03;;;-144.48;64.07
4123;BME280;2075;51.062;6.920;2023-04-25T07:06:56;94332.69;;;-144.48;62.67
4123;BME280;2075;51.062;6.920;2023-04-25T07:09:54;94253.44;;;-144.48;63.29
4123;BME280;2075;51.062;6.920;2023-04-25T07:12:41;94285.94;;;-144.48;61.12
4123;BME280;2075;51.062;6.920;2023-04-25T07:15:27;94259.53;;;-144.48;57.44
4123;BME280;2075;51.062;6.920;2023-04-25T07:18:14;94243.28;;;-144.48;56.51
4123;BME280;2075;51.062;6.920;2023-04-25T07:21:00;94056.38;;;-144.48;54.88
4123;BME280;2075;51.062;6.920;2023-04-25T07:23:46;94285.94;;;-144.48;59.05
4123;BME280;2075;51.062;6.920;2023-04-25T07:26:36;94294.09;;;-144.48;59.56
4123;BME280;2075;51.062;6.920;2023-04-25T07:29:40;94273.75;;;-144.48;54.35
4123;BME280;2075;51.062;6.920;2023-04-25T07:32:26;94298.16;;;-144.48;54.35
4123;BME280;2075;51.062;6.920;2023-04-25T07:35:13;94212.81;;;-144.48;51.30
4123;BME280;2075;51.062;6.920;2023-04-25T07:37:59;94119.34;;;-144.48;50.55
4123;BME280;2075;51.062;6.920;2023-04-25T07:40:46;94070.59;;;-144.48;46.00
4123;BME280;2075;51.062;6.920;2023-04-25T07:43:33;94046.22;;;-144.48;46.90
4123;BME280;2075;51.062;6.920;2023-04-25T07:46:20;94036.06;;;-144.48;45.75
4123;BME280;2075;51.062;6.920;2023-04-25T07:49:07;94101.06;;;-144.48;45.58
4123;BME280;2075;51.062;6.920;2023-04-25T07:51:54;93928.41;;;-144.48;45.10
4123;BME280;2075;51.062;6.920;2023-04-25T07:54:42;93914.19;;;-144.48;44.61
4123;BME280;2075;51.062;6.920;2023-04-25T07:57:34;93985.28;;;-144.48;45.00
4123;BME280;2075;51.062;6.920;2023-04-25T08:00:31;94216.88;;;-144.48;47.71
4123;BME280;2075;51.062;6.920;2023-04-25T08:03:38;94273.75;;;-144.48;51.38
4123;BME280;2075;51.062;6.920;2023-04-25T08:06:29;94235.16;;;-144.48;51.03
4123;BME280;2075;51.062;6.920;2023-04-25T08:09:29;94281.88;;;-144.48;52.37
4123;BME280;2075;51.062;6.920;2023-04-25T08:12:18;94340.81;;;-144.48;52.58
4123;BME280;2075;51.062;6.920;2023-04-25T08:15:06;94391.59;;;-144.48;53.92
4123;BME280;2075;51.062;6.920;2023-04-25T08:17:54;94367.22;;;-144.48;55.67
4123;BME280;2075;51.062;6.920;2023-04-25T08:20:41;94403.78;;;-144.48;57.29
4123;BME280;2075;51.062;6.920;2023-04-25T08:23:29;94444.44;;;-144.48;58.66
4123;BME280;2075;51.062;6.920;2023-04-25T08:26:24;94456.63;;;-144.48;61.27
4123;BME280;2075;51.062;6.920;2023-04-25T08:31:59;94424.09;;;-144.48;64.34
4123;BME280;2075;51.062;6.920;2023-04-25T08:34:45;94428.16;;;-144.48;65.96
4123;BME280;2075;51.062;6.920;2023-04-25T08:37:33;94434.28;;;-144.48;65.59
4123;BME280;2075;51.062;6.920;2023-04-25T08:40:28;94424.09;;;-144.48;63.79
4123;BME280;2075;51.062;6.920;2023-04-25T08:43:24;94438.34;;;-144.48;64.21
4123;BME280;2075;51.062;6.920;2023-04-25T08:46:11;94452.56;;;-144.48;65.41
4123;BME280;2075;51.062;6.920;2023-04-25T08:49:12;94367.22;;;-144.48;63.54
4123;BME280;2075;51.062;6.920;2023-04-25T08:52:00;94267.66;;;-144.48;55.99
4123;BME280;2075;51.062;6.920;2023-04-25T08:54:49;94241.25;;;-144.48;51.77
4123;BME280;2075;51.062;6.920;2023-04-25T08:57:36;94005.59;;;-144.48;45.71
4123;BME280;2075;51.062;6.920;2023-04-25T09:00:22;93891.84;;;-144.48;42.62
4123;BME280;2075;51.062;6.920;2023-04-25T09:03:07;93778.06;;;-144.48;40.54
4123;BME280;2075;51.062;6.920;2023-04-25T09:05:54;93855.25;;;-144.48;40.25
4123;BME280;2075;51.062;6.920;2023-04-25T09:08:40;93780.09;;;-144.48;39.23
4123;BME280;2075;51.062;6.920;2023-04-25T09:11:27;93845.09;;;-144.48;38.84
4123;BME280;2075;51.062;6.920;2023-04-25T09:14:15;93985.28;;;-144.48;41.16
4123;BME280;2075;51.062;6.920;2023-04-25T09:17:33;94164.06;;;-144.48;44.59
4123;BME280;2075;51.062;6.920;2023-04-25T09:20:24;94200.63;;;-144.48;44.83
4123;BME280;2075;51.062;6.920;2023-04-25T09:23:10;94269.69;;;-144.48;44.49
4123;BME280;2075;51.062;6.920;2023-04-25T09:25:55;94231.09;;;-144.48;46.19
4123;BME280;2075;51.062;6.920;2023-04-25T09:28:43;94229.06;;;-144.48;44.91
4123;BME280;2075;51.062;6.920;2023-04-25T09:31:33;94216.88;;;-144.48;43.38
4123;BME280;2075;51.062;6.920;2023-04-25T09:34:23;94131.56;;;-144.48;42.05
4123;BME280;2075;51.062;6.920;2023-04-25T09:37:16;94013.72;;;-144.48;40.05
4123;BME280;2075;51.062;6.920;2023-04-25T09:40:39;94044.19;;;-144.48;38.80
4123;BME280;2075;51.062;6.920;2023-04-25T09:43:31;94084.81;;;-144.48;39.20
4123;BME280;2075;51.062;6.920;2023-04-25T09:46:18;94121.38;;;-144.48;39.65
4123;BME280;2075;51.062;6.920;2023-04-25T09:49:10;94267.66;;;-144.48;41.70
4123;BME280;2075;51.062;6.920;2023-04-25T09:52:05;94123.44;;;-144.48;40.06
4123;BME280;2075;51.062;6.920;2023-04-25T09:55:05;94092.94;;;-144.48;39.33
4123;BME280;2075;51.062;6.920;2023-04-25T09:57:53;94070.59;;;-144.48;39.95
4123;BME280;2075;51.062;6.920;2023-04-25T10:00:41;94042.16;;;-144.48;39.55
4123;BME280;2075;51.062;6.920;2023-04-25T10:03:42;94113.25;;;-144.48;40.25
4123;BME280;2075;51.062;6.920;2023-04-25T10:06:49;94166.09;;;-144.48;40.50
4123;BME280;2075;51.062;6.920;2023-04-25T10:09:37;94125.47;;;-144.48;41.28
4123;BME280;2075;51.062;6.920;2023-04-25T10:12:26;94103.09;;;-144.48;40.95
4123;BME280;2075;51.062;6.920;2023-04-25T10:15:12;94009.66;;;-144.48;41.03
4123;BME280;2075;51.062;6.920;2023-04-25T10:18:00;93948.72;;;-144.48;39.11
4123;BME280;2075;51.062;6.920;2023-04-25T10:20:48;93962.94;;;-144.48;39.00
4123;BME280;2075;51.062;6.920;2023-04-25T10:23:34;94036.06;;;-144.48;39.20
4123;BME280;2075;51.062;6.920;2023-04-25T10:26:22;94186.41;;;-144.48;40.52
4123;BME280;2075;51.062;6.920;2023-04-25T10:29:09;94233.13;;;-144.48;42.84
4123;BME280;2075;51.062;6.920;2023-04-25T10:31:57;94324.56;;;-144.48;43.06
4123;BME280;2075;51.062;6.920;2023-04-25T10:34:44;94277.81;;;-144.48;44.27
4123;BME280;2075;51.062;6.920;2023-04-25T10:37:33;94322.53;;;-144.48;43.03
4123;BME280;2075;51.062;6.920;2023-04-25T10:40:21;94235.16;;;-144.48;42.49
4123;BME280;2075;51.062;6.920;2023-04-25T10:43:35;94157.97;;;-144.48;41.82
4123;BME280;2075;51.062;6.920;2023-04-25T10:46:25;94092.94;;;-144.48;40.08
4123;BME280;2075;51.062;6.920;2023-04-25T10:49:29;94208.75;;;-144.48;39.05
4123;BME280;2075;51.062;6.920;2023-04-25T10:52:25;94090.91;;;-144.48;39.05
4123;BME280;2075;51.062;6.920;2023-04-25T10:55:13;94099.03;;;-144.48;38.90
4123;BME280;2075;51.062;6.920;2023-04-25T10:58:00;94125.47;;;-144.48;39.13
4123;BME280;2075;51.062;6.920;2023-04-25T11:00:45;94227.03;;;-144.48;38.95
4123;BME280;2075;51.062;6.920;2023-04-25T11:03:32;94052.31;;;-144.48;39.04
4123;BME280;2075;51.062;6.920;2023-04-25T11:06:22;94034.03;;;-144.48;38.37
4123;BME280;2075;51.062;6.920;2023-04-25T11:09:10;93940.59;;;-144.48;37.97
4123;BME280;2075;51.062;6.920;2023-04-25T11:11:59;93960.91;;;-144.48;38.03
4123;BME280;2075;51.062;6.920;2023-04-25T11:14:46;93928.41;;;-144.48;37.53
4123;BME280;2075;51.062;6.920;2023-04-25T11:17:31;93897.94;;;-144.48;37.38
4123;BME280;2075;51.062;6.920;2023-04-25T11:20:16;93855.25;;;-144.48;36.44
4123;BME280;2075;51.062;6.920;2023-04-25T11:23:02;94050.28;;;-144.48;38.69
4123;BME280;2075;51.062;6.920;2023-04-25T11:25:49;94042.16;;;-144.48;38.78
4123;BME280;2075;51.062;6.920;2023-04-25T11:28:40;94011.69;;;-144.48;36.73
4123;BME280;2075;51.062;6.920;2023-04-25T11:31:43;94019.81;;;-144.48;35.87
4123;BME280;2075;51.062;6.920;2023-04-25T11:34:31;93912.16;;;-144.48;36.82
4123;BME280;2075;51.062;6.920;2023-04-25T11:37:17;94007.63;;;-144.48;36.82
4123;BME280;2075;51.062;6.920;2023-04-25T11:40:04;94070.59;;;-144.48;36.80
4123;BME280;2075;51.062;6.920;2023-04-25T11:42:51;94029.97;;;-144.48;37.34
4123;BME280;2075;51.062;6.920;2023-04-25T11:45:42;94157.97;;;-144.48;38.13
4123;BME280;2075;51.062;6.920;2023-04-25T11:48:38;94137.66;;;-144.48;38.00
4123;BME280;2075;51.062;6.920;2023-04-25T11:51:28;94034.03;;;-144.48;38.21
4123;BME280;2075;51.062;6.920;2023-04-25T11:54:15;94001.53;;;-144.48;36.49
4123;BME280;2075;51.062;6.920;2023-04-25T11:57:01;93924.34;;;-144.48;36.62
4123;BME280;2075;51.062;6.920;2023-04-25T11:59:48;93851.22;;;-144.48;35.43
4123;BME280;2075;51.062;6.920;2023-04-25T12:02:40;93934.50;;;-144.48;34.50
4123;BME280;2075;51.062;6.920;2023-04-25T12:05:27;94078.72;;;-144.48;35.20
4123;BME280;2075;51.062;6.920;2023-04-25T12:08:14;94034.03;;;-144.48;35.76
4123;BME280;2075;51.062;6.920;2023-04-25T12:11:00;94050.28;;;-144.48;34.95
4123;BME280;2075;51.062;6.920;2023-04-25T12:13:51;94013.72;;;-144.48;34.20
4123;BME280;2075;51.062;6.920;2023-04-25T12:16:41;93940.59;;;-144.48;34.94
4123;BME280;2075;51.062;6.920;2023-04-25T12:19:41;93899.97;;;-144.48;35.97
4123;BME280;2075;51.062;6.920;2023-04-25T12:22:28;94011.69;;;-144.48;36.06
4123;BME280;2075;51.062;6.920;2023-04-25T12:25:35;94084.81;;;-144.48;36.50
4123;BME280;2075;51.062;6.920;2023-04-25T12:28:24;94097.00;;;-144.48;38.12
4123;BME280;2075;51.062;6.920;2023-04-25T12:31:17;94094.97;;;-144.48;37.22
4123;BME280;2075;51.062;6.920;2023-04-25T12:34:06;93960.91;;;-144.48;37.40
4123;BME280;2075;51.062;6.920;2023-04-25T12:36:54;94101.06;;;-144.48;37.36
4123;BME280;2075;51.062;6.920;2023-04-25T12:39:41;94009.66;;;-144.48;38.03
4123;BME280;2075;51.062;6.920;2023-04-25T12:42:27;94141.72;;;-144.48;38.58
4123;BME280;2075;51.062;6.920;2023-04-25T12:45:13;94115.28;;;-144.48;38.60
4123;BME280;2075;51.062;6.920;2023-04-25T12:56:08;94121.38;;;-144.48;37.61
4123;BME280;2075;51.062;6.920;2023-04-25T13:01:37;93969.03;;;-144.48;36.61
4123;BME280;2075;51.062;6.920;2023-04-25T13:07:09;93922.31;;;-144.48;36.22
4123;BME280;2075;51.062;6.920;2023-04-25T13:09:59;93946.69;;;-144.48;36.16
4123;BME280;2075;51.062;6.920;2023-04-25T13:15:38;93997.47;;;-144.48;36.07
4123;BME280;2075;51.062;6.920;2023-04-25T13:18:32;93989.34;;;-144.48;37.16
4123;BME280;2075;51.062;6.920;2023-04-25T13:21:32;93786.19;;;-144.48;37.28
4123;BME280;2075;51.062;6.920;2023-04-25T13:24:23;94184.38;;;-144.48;42.27
4123;BME280;2075;51.062;6.920;2023-04-25T13:27:14;94180.31;;;-144.48;44.60
4123;BME280;2075;51.062;6.920;2023-04-25T13:38:17;94147.81;;;-144.48;44.94
4123;BME280;2075;51.062;6.920;2023-04-25T13:41:20;94038.09;;;-144.48;43.65
4123;BME280;2075;51.062;6.920;2023-04-25T13:50:00;94080.75;;;-144.48;39.90
4123;BME280;2075;51.062;6.920;2023-04-25T13:52:47;94046.22;;;-144.48;40.80
4123;BME280;2075;51.062;6.920;2023-04-25T13:55:38;94094.97;;;-144.48;41.54
4123;BME280;2075;51.062;6.920;2023-04-25T13:58:24;94058.41;;;-144.48;42.16
4123;BME280;2075;51.062;6.920;2023-04-25T14:01:09;94495.22;;;-144.48;43.39
4123;BME280;2075;51.062;6.920;2023-04-25T14:03:55;94210.78;;;-144.48;41.78
4123;BME280;2075;51.062;6.920;2023-04-25T14:06:40;94153.91;;;-144.48;41.85
4123;BME280;2075;51.062;6.920;2023-04-25T14:09:26;94316.44;;;-144.48;40.50
4123;BME280;2075;51.062;6.920;2023-04-25T14:12:12;93967.00;;;-144.48;40.08
4123;BME280;2075;51.062;6.920;2023-04-25T14:14:58;93952.78;;;-144.48;40.38
4123;BME280;2075;51.062;6.920;2023-04-25T14:17:44;93926.38;;;-144.48;37.64
4123;BME280;2075;51.062;6.920;2023-04-25T14:20:30;93950.75;;;-144.48;36.32
4123;BME280;2075;51.062;6.920;2023-04-25T14:23:16;93987.31;;;-144.48;36.32
4123;BME280;2075;51.062;6.920;2023-04-25T14:26:01;93989.34;;;-144.48;36.50
4123;BME280;2075;51.062;6.920;2023-04-25T14:28:48;94086.84;;;-144.48;36.66
4123;BME280;2075;51.062;6.920;2023-04-25T14:31:35;94105.13;;;-144.48;36.35
4123;BME280;2075;51.062;6.920;2023-04-25T14:34:20;94090.91;;;-144.48;36.37
4123;BME280;2075;51.062;6.920;2023-04-25T14:37:06;93962.94;;;-144.48;36.34
4123;BME280;2075;51.062;6.920;2023-04-25T14:39:51;94019.81;;;-144.48;37.25
4123;BME280;2075;51.062;6.920;2023-04-25T14:42:38;94042.16;;;-144.48;38.18
4123;BME280;2075;51.062;6.920;2023-04-25T14:45:25;94113.25;;;-144.48;38.57
4123;BME280;2075;51.062;6.920;2023-04-25T14:48:11;94086.84;;;-144.48;39.55
4123;BME280;2075;51.062;6.920;2023-04-25T14:50:56;94023.88;;;-144.48;39.46
4123;BME280;2075;51.062;6.920;2023-04-25T14:53:42;94139.69;;;-144.48;39.08
4123;BME280;2075;51.062;6.920;2023-04-25T14:56:28;94090.91;;;-144.48;39.74
4123;BME280;2075;51.062;6.920;2023-04-25T14:59:15;94070.59;;;-144.48;39.11
4123;BME280;2075;51.062;6.920;2023-04-25T15:02:02;94044.19;;;-144.48;39.21
4123;BME280;2075;51.062;6.920;2023-04-25T15:04:48;94015.75;;;-144.48;38.16
4123;BME280;2075;51.062;6.920;2023-04-25T15:07:35;93889.81;;;-144.48;38.26
4123;BME280;2075;51.062;6.920;2023-04-25T15:10:31;93830.88;;;-144.48;38.66
4123;BME280;2075;51.062;6.920;2023-04-25T15:13:33;93967.00;;;-144.48;39.05
4123;BME280;2075;51.062;6.920;2023-04-25T15:16:22;93962.94;;;-144.48;38.08
4123;BME280;2075;51.062;6.920;2023-04-25T15:27:13;94005.59;;;-144.48;40.31
4123;BME280;2075;51.062;6.920;2023-04-25T15:30:10;94164.06;;;-144.48;40.76
4123;BME280;2075;51.062;6.920;2023-04-25T15:33:09;94099.03;;;-144.48;41.32
4123;BME280;2075;51.062;6.920;2023-04-25T15:36:11;94151.88;;;-144.48;40.81
4123;BME280;2075;51.062;6.920;2023-04-25T15:39:01;94170.16;;;-144.48;40.92